createdAt,value
2023-05-19T00:00:15.508Z,101163.13
2023-05-19T00:03:21.851Z,101163.47
2023-05-19T00:06:26.928Z,101155.94
2023-05-19T00:09:29.645Z,101155.16
2023-05-19T00:12:32.264Z,101145.66
2023-05-19T00:15:35.465Z,101166.22
2023-05-19T00:18:37.947Z,101152.00
2023-05-19T00:21:40.596Z,101167.75
2023-05-19T00:24:43.021Z,101166.97
2023-05-19T00:27:45.464Z,101163.38
2023-05-19T00:30:47.988Z,101158.31
2023-05-19T00:33:50.406Z,101146.50
2023-05-19T00:36:52.827Z,101156.00
2023-05-19T00:39:55.328Z,101159.09
2023-05-19T00:42:57.807Z,101147.66
2023-05-19T00:46:00.492Z,101152.06
2023-05-19T00:49:02.958Z,101148.47
2023-05-19T00:52:06.550Z,101145.78
2023-05-19T00:55:09.950Z,101133.88
2023-05-19T00:58:14.232Z,101129.19
2023-05-19T01:01:17.418Z,101139.47
2023-05-19T01:04:21.759Z,101131.50
2023-05-19T01:07:25.504Z,101133.88
2023-05-19T01:10:27.907Z,101149.25
2023-05-19T01:13:30.991Z,101134.78
2023-05-19T01:16:59.444Z,101132.03
2023-05-19T01:20:08.205Z,101137.09
2023-05-19T01:23:49.458Z,101135.16
2023-05-19T01:27:00.828Z,101139.03
2023-05-19T01:30:42.114Z,101140.19
2023-05-19T01:33:46.001Z,101135.03
2023-05-19T01:36:51.444Z,101140.97
2023-05-19T01:39:55.754Z,101126.69
2023-05-19T01:43:00.262Z,101131.38
2023-05-19T01:46:03.309Z,101127.47
2023-05-19T01:49:06.770Z,101131.00
2023-05-19T01:52:09.201Z,101141.22
2023-05-19T01:55:11.817Z,101132.91
2023-05-19T01:58:43.463Z,101134.19
2023-05-19T02:01:53.116Z,101124.69
2023-05-19T02:05:00.686Z,101145.19
2023-05-19T02:08:09.868Z,101134.59
2023-05-19T02:11:29.773Z,101138.50
2023-05-19T02:14:38.727Z,101133.03
2023-05-19T02:17:47.813Z,101131.44
2023-05-19T02:20:50.526Z,101125.53
2023-05-19T02:23:52.926Z,101129.44
2023-05-19T02:26:55.629Z,101126.31
2023-05-19T02:29:58.117Z,101130.59
2023-05-19T02:33:00.717Z,101123.47
2023-05-19T02:36:03.293Z,101132.16
2023-05-19T02:39:05.832Z,101115.19
2023-05-19T02:42:08.325Z,101122.69
2023-05-19T02:45:11.248Z,101113.63
2023-05-19T02:48:16.425Z,101108.50
2023-05-19T02:51:18.875Z,101117.09
2023-05-19T02:54:21.324Z,101129.75
2023-05-19T02:57:24.229Z,101122.97
2023-05-19T03:00:26.623Z,101132.03
2023-05-19T03:03:29.183Z,101139.03
2023-05-19T03:06:32.933Z,101140.63
2023-05-19T03:09:35.841Z,101126.31
2023-05-19T03:12:38.320Z,101136.19
2023-05-19T03:15:42.609Z,101145.31
2023-05-19T03:18:45.164Z,101141.78
2023-05-19T03:21:47.729Z,101132.66
2023-05-19T03:24:51.559Z,101146.81
2023-05-19T03:27:54.066Z,101149.91
2023-05-19T03:30:56.627Z,101149.13
2023-05-19T03:34:03.251Z,101121.44
2023-05-19T03:37:05.730Z,101144.75
2023-05-19T03:40:10.609Z,101151.06
2023-05-19T03:43:16.321Z,101143.66
2023-05-19T03:46:27.680Z,101123.94
2023-05-19T03:49:40.574Z,101123.16
2023-05-19T03:53:12.236Z,101133.50
2023-05-19T03:56:18.236Z,101134.28
2023-05-19T03:59:20.696Z,101143.72
2023-05-19T04:02:23.179Z,101127.19
2023-05-19T04:05:25.893Z,101142.56
2023-05-19T04:08:29.427Z,101129.25
2023-05-19T04:11:31.955Z,101140.81
2023-05-19T04:14:34.341Z,101129.50
2023-05-19T04:17:36.965Z,101130.81
2023-05-19T04:20:39.459Z,101143.28
2023-05-19T04:23:41.864Z,101145.06
2023-05-19T04:26:46.901Z,101143.31
2023-05-19T04:29:51.149Z,101131.72
2023-05-19T04:32:53.789Z,101141.75
2023-05-19T04:35:56.849Z,101151.38
2023-05-19T04:39:02.605Z,101166.16
2023-05-19T04:42:06.405Z,101153.69
2023-05-19T04:45:10.205Z,101157.75
2023-05-19T04:48:15.896Z,101158.91
2023-05-19T04:51:18.300Z,101137.16
2023-05-19T04:54:21.527Z,101164.91
2023-05-19T04:57:24.141Z,101154.63
2023-05-19T05:00:26.868Z,101167.25
2023-05-19T05:03:38.902Z,101181.56
2023-05-19T05:06:42.513Z,101178.44
2023-05-19T05:09:45.620Z,101179.25
2023-05-19T05:12:48.350Z,101172.97
2023-05-19T05:15:54.580Z,101168.25
2023-05-19T05:18:58.037Z,101163.53
2023-05-19T05:22:01.152Z,101176.59
2023-05-19T05:25:05.070Z,101173.41
2023-05-19T05:28:07.620Z,101191.97
2023-05-19T05:31:12.352Z,101170.69
2023-05-19T05:34:15.828Z,101184.06
2023-05-19T05:37:18.769Z,101190.84
2023-05-19T05:40:21.621Z,101201.47
2023-05-19T05:43:24.334Z,101189.59
2023-05-19T05:46:33.135Z,101207.03
2023-05-19T05:49:38.287Z,101205.88
2023-05-19T05:52:42.398Z,101196.00
2023-05-19T05:55:46.828Z,101192.16
2023-05-19T05:58:50.695Z,101200.44
2023-05-19T06:01:53.629Z,101194.91
2023-05-19T06:04:56.846Z,101213.84
2023-05-19T06:07:59.762Z,101198.50
2023-05-19T06:11:20.484Z,101183.06
2023-05-19T06:14:24.050Z,101190.59
2023-05-19T06:19:02.626Z,101206.50
2023-05-19T06:22:58.386Z,101208.56
2023-05-19T06:26:06.688Z,101189.41
2023-05-19T06:29:09.165Z,101166.59
2023-05-19T06:32:11.750Z,101226.13
2023-05-19T06:35:15.151Z,101216.66
2023-05-19T06:38:17.679Z,101184.75
2023-05-19T06:41:24.367Z,101202.91
2023-05-19T06:44:27.600Z,101230.50
2023-05-19T06:47:30.303Z,101215.94
2023-05-19T06:50:33.103Z,101229.53
2023-05-19T06:53:36.790Z,101173.69
2023-05-19T06:56:43.325Z,101171.72
2023-05-19T06:59:48.877Z,101178.50
2023-05-19T07:02:51.426Z,101220.72
2023-05-19T07:05:54.615Z,101203.38
2023-05-19T07:08:57.179Z,101199.44
2023-05-19T07:12:01.584Z,101238.41
2023-05-19T07:15:06.044Z,101220.66
2023-05-19T07:18:09.696Z,101238.38
2023-05-19T07:21:12.079Z,101231.28
2023-05-19T07:24:15.202Z,101229.69
2023-05-19T07:27:17.656Z,101234.03
2023-05-19T07:30:20.090Z,101217.47
2023-05-19T07:33:22.567Z,101214.28
2023-05-19T07:36:25.183Z,101212.66
2023-05-19T07:39:32.247Z,101229.63
2023-05-19T07:42:35.281Z,101219.75
2023-05-19T07:45:38.499Z,101223.34
2023-05-19T07:48:52.087Z,101195.78
2023-05-19T07:51:54.661Z,101221.41
2023-05-19T07:54:57.140Z,101196.22
2023-05-19T07:57:59.778Z,101202.94
2023-05-19T08:01:02.702Z,101204.91
2023-05-19T08:04:05.763Z,101215.19
2023-05-19T08:07:09.423Z,101214.41
2023-05-19T08:10:12.025Z,101177.78
2023-05-19T08:13:14.488Z,101183.28
2023-05-19T08:16:17.082Z,101185.22
2023-05-19T08:19:22.193Z,101179.72
2023-05-19T08:22:25.098Z,101197.06
2023-05-19T08:25:27.803Z,101168.66
2023-05-19T08:28:30.860Z,101146.59
2023-05-19T08:31:36.896Z,101184.81
2023-05-19T08:34:50.741Z,101210.03
2023-05-19T08:37:54.139Z,101159.56
2023-05-19T08:40:58.232Z,101167.47
2023-05-19T08:44:00.898Z,101167.47
2023-05-19T08:47:12.829Z,101152.84
2023-05-19T08:50:24.994Z,101186.72
2023-05-19T08:53:37.061Z,101166.59
2023-05-19T08:56:39.760Z,101169.72
2023-05-19T08:59:43.732Z,101186.28
2023-05-19T09:02:59.819Z,101184.22
2023-05-19T09:06:08.845Z,101188.94
2023-05-19T09:09:11.795Z,101188.13
2023-05-19T09:12:14.581Z,101217.72
2023-05-19T09:15:21.231Z,101199.91
2023-05-19T09:18:25.223Z,101213.75
2023-05-19T09:21:31.690Z,101196.72
2023-05-19T09:24:35.005Z,101169.94
2023-05-19T09:27:38.186Z,101178.56
2023-05-19T09:34:13.546Z,101184.47
2023-05-19T09:37:27.237Z,101180.94
2023-05-19T09:40:32.783Z,101191.59
2023-05-19T09:43:35.730Z,101211.69
2023-05-19T09:46:38.813Z,101207.34
2023-05-19T09:49:54.009Z,101207.34
2023-05-19T09:53:05.598Z,101164.75
2023-05-19T09:59:33.435Z,101150.59
2023-05-19T10:02:37.091Z,101185.63
2023-05-19T10:05:41.623Z,101181.28
2023-05-19T10:08:44.348Z,101178.13
2023-05-19T10:11:49.211Z,101164.75
2023-05-19T10:14:54.864Z,101160.38
2023-05-19T10:17:57.645Z,101143.09
2023-05-19T10:21:02.741Z,101173.03
2023-05-19T10:24:05.662Z,101166.75
2023-05-19T10:27:11.915Z,101173.84
2023-05-19T10:30:23.831Z,101169.09
2023-05-19T10:33:45.335Z,101164.41
2023-05-19T10:37:15.132Z,101139.97
2023-05-19T10:40:30.709Z,101154.56
2023-05-19T10:43:49.925Z,101158.09
2023-05-19T10:46:53.505Z,101163.59
2023-05-19T10:50:00.840Z,101156.91
2023-05-19T10:54:12.201Z,101164.38
2023-05-19T10:57:18.395Z,101154.56
2023-05-19T11:00:28.188Z,101136.84
2023-05-19T11:06:44.005Z,101125.44
2023-05-19T11:09:51.823Z,101097.88
2023-05-19T11:16:08.244Z,101128.66
2023-05-19T11:19:20.029Z,101130.59
2023-05-19T11:22:28.657Z,101133.72
2023-05-19T11:25:51.666Z,101127.06
2023-05-19T11:28:54.479Z,101119.53
2023-05-19T11:31:57.320Z,101127.41
2023-05-19T11:35:00.985Z,101125.84
2023-05-19T11:38:04.116Z,101131.72
2023-05-19T11:41:06.654Z,101118.75
2023-05-19T11:44:12.372Z,101077.69
2023-05-19T11:47:15.828Z,101123.09
2023-05-19T11:50:19.036Z,101119.50
2023-05-19T11:53:21.543Z,101113.22
2023-05-19T11:56:24.007Z,101123.03
2023-05-19T11:59:35.634Z,101104.94
2023-05-19T12:02:39.631Z,101117.94
2023-05-19T12:05:46.706Z,101121.84
2023-05-19T12:08:52.148Z,101108.50
2023-05-19T12:11:55.248Z,101076.16
2023-05-19T12:14:59.774Z,101101.81
2023-05-19T12:18:02.703Z,101097.06
2023-05-19T12:21:06.005Z,101088.81
2023-05-19T12:24:09.056Z,101056.50
2023-05-19T12:27:13.884Z,101084.50
2023-05-19T12:30:17.392Z,101068.38
2023-05-19T12:33:20.164Z,101033.69
2023-05-19T12:36:25.188Z,101035.25
2023-05-19T12:39:27.856Z,101088.09
2023-05-19T12:42:31.581Z,101087.31
2023-05-19T12:45:35.116Z,101070.78
2023-05-19T12:48:44.467Z,101082.59
2023-05-19T12:51:54.181Z,101077.88
2023-05-19T12:55:07.600Z,101055.81
2023-05-19T12:58:12.182Z,101076.69
2023-05-19T13:01:18.864Z,101060.56
2023-05-19T13:04:21.389Z,101072.75
2023-05-19T13:07:23.936Z,101074.72
2023-05-19T13:10:27.863Z,101051.09
2023-05-19T13:13:30.290Z,101060.56
2023-05-19T13:16:33.084Z,101031.78
2023-05-19T13:19:35.648Z,101048.75
2023-05-19T13:22:38.295Z,101060.56
2023-05-19T13:25:41.572Z,101056.22
2023-05-19T13:28:43.995Z,101048.75
2023-05-19T13:31:46.536Z,101046.41
2023-05-19T13:34:49.038Z,101042.88
2023-05-19T13:37:51.431Z,101016.47
2023-05-19T13:40:53.972Z,101028.25
2023-05-19T13:43:59.800Z,101006.59
2023-05-19T13:47:02.287Z,101005.47
2023-05-19T13:50:05.792Z,101032.59
2023-05-19T13:53:08.544Z,101008.59
2023-05-19T13:56:11.007Z,101007.81
2023-05-19T13:59:14.084Z,101009.81
2023-05-19T14:02:16.612Z,101020.44
2023-05-19T14:05:19.086Z,100976.72
2023-05-19T14:08:22.162Z,101017.69
2023-05-19T14:11:24.694Z,101016.09
2023-05-19T14:14:27.226Z,101013.34
2023-05-19T14:17:29.665Z,100997.56
2023-05-19T14:20:32.358Z,101015.28
2023-05-19T14:23:34.896Z,101019.22
2023-05-19T14:26:37.309Z,101006.25
2023-05-19T14:29:39.736Z,101001.50
2023-05-19T14:32:42.394Z,101011.75
2023-05-19T14:35:45.098Z,100997.97
2023-05-19T14:38:47.454Z,101010.97
2023-05-19T14:41:51.580Z,101011.75
2023-05-19T14:44:54.038Z,101002.31
2023-05-19T14:47:59.607Z,101009.00
2023-05-19T14:51:02.032Z,100977.13
2023-05-19T14:54:04.420Z,101006.25
2023-05-19T14:57:08.225Z,100981.88
2023-05-19T15:00:11.109Z,100981.88
2023-05-19T15:03:13.612Z,100976.00
2023-05-19T15:06:16.132Z,100979.94
2023-05-19T15:09:18.569Z,100999.19
2023-05-19T15:12:21.077Z,100979.56
2023-05-19T15:15:23.667Z,100992.94
2023-05-19T15:18:26.316Z,100965.00
2023-05-19T15:21:28.834Z,100945.31
2023-05-19T15:24:31.220Z,100984.28
2023-05-19T15:27:37.642Z,100953.59
2023-05-19T15:30:40.239Z,100965.81
2023-05-19T15:33:42.660Z,100982.72
2023-05-19T15:36:45.275Z,100970.50
2023-05-19T15:39:47.779Z,100968.94
2023-05-19T15:42:50.492Z,100970.16
2023-05-19T15:45:55.257Z,100970.16
2023-05-19T15:48:57.852Z,100943.38
2023-05-19T15:52:00.422Z,100967.81
2023-05-19T15:55:02.973Z,100941.41
2023-05-19T15:58:05.462Z,100942.19
2023-05-19T16:01:08.465Z,100943.38
2023-05-19T16:04:11.344Z,100962.25
2023-05-19T16:07:13.895Z,100943.72
2023-05-19T16:10:16.378Z,100952.78
2023-05-19T16:13:18.811Z,100950.41
2023-05-19T16:16:21.357Z,100966.53
2023-05-19T16:19:24.160Z,100959.06
2023-05-19T16:22:27.278Z,100926.78
2023-05-19T16:25:29.872Z,100967.69
2023-05-19T16:28:32.619Z,100977.94
2023-05-19T16:31:35.114Z,100959.03
2023-05-19T16:34:37.571Z,100953.50
2023-05-19T16:37:40.239Z,100927.56
2023-05-19T16:40:42.727Z,100985.41
2023-05-19T16:43:45.215Z,100962.13
2023-05-19T16:46:47.654Z,100976.72
2023-05-19T16:49:50.224Z,100945.63
2023-05-19T16:52:52.659Z,100955.84
2023-05-19T16:55:55.099Z,100959.78
2023-05-19T16:58:57.617Z,100950.31
2023-05-19T17:02:00.197Z,100940.91
2023-05-19T17:05:02.719Z,100940.09
2023-05-19T17:08:05.965Z,100963.31
2023-05-19T17:11:08.650Z,100943.25
2023-05-19T17:14:11.138Z,100941.69
2023-05-19T17:17:13.667Z,100920.38
2023-05-19T17:20:16.535Z,100966.06
2023-05-19T17:23:18.981Z,100949.50
2023-05-19T17:26:22.204Z,100960.91
2023-05-19T17:29:24.857Z,100967.22
2023-05-19T17:32:29.360Z,100927.03
2023-05-19T17:35:33.461Z,100983.69
2023-05-19T17:38:40.243Z,100995.09
2023-05-19T17:41:43.172Z,100988.81
2023-05-19T17:44:45.628Z,100968.31
2023-05-19T17:47:48.593Z,100978.56
2023-05-19T17:50:51.179Z,100946.25
2023-05-19T17:53:53.905Z,100954.91
2023-05-19T17:56:58.465Z,100974.59
2023-05-19T18:00:02.025Z,100959.59
2023-05-19T18:03:08.082Z,100989.88
2023-05-19T18:06:11.870Z,100966.59
2023-05-19T18:09:15.630Z,100985.09
2023-05-19T18:12:18.159Z,100968.13
2023-05-19T18:15:20.791Z,100974.81
2023-05-19T18:18:23.239Z,100994.09
2023-05-19T18:21:26.927Z,100979.13
2023-05-19T18:24:29.391Z,100981.84
2023-05-19T18:27:33.516Z,100983.75
2023-05-19T18:30:36.294Z,100980.16
2023-05-19T18:33:39.935Z,100987.69
2023-05-19T18:36:42.482Z,100988.41
2023-05-19T18:39:44.967Z,101001.41
2023-05-19T18:42:47.879Z,100985.94
2023-05-19T18:45:50.468Z,100968.63
2023-05-19T18:48:53.036Z,100990.63
2023-05-19T18:51:55.591Z,100989.38
2023-05-19T18:54:59.671Z,101000.41
2023-05-19T18:58:02.137Z,101020.09
2023-05-19T19:01:05.309Z,100993.63
2023-05-19T19:04:07.904Z,100992.88
2023-05-19T19:07:10.370Z,101029.03
2023-05-19T19:10:13.065Z,101040.00
2023-05-19T19:13:15.550Z,101023.09
2023-05-19T19:16:18.029Z,101014.78
2023-05-19T19:19:20.774Z,101008.44
2023-05-19T19:22:23.286Z,101005.25
2023-05-19T19:25:25.819Z,101016.31
2023-05-19T19:28:28.274Z,101026.94
2023-05-19T19:31:30.768Z,101017.00
2023-05-19T19:34:33.974Z,101054.09
2023-05-19T19:37:36.477Z,100995.69
2023-05-19T19:40:38.982Z,101026.34
2023-05-19T19:43:41.398Z,101066.56
2023-05-19T19:46:43.958Z,101032.59
2023-05-19T19:49:46.519Z,101026.63
2023-05-19T19:52:48.942Z,101075.50
2023-05-19T19:56:01.675Z,101082.13
2023-05-19T19:59:04.104Z,101040.66
2023-05-19T20:02:07.052Z,101060.75
2023-05-19T20:05:09.821Z,101062.28
2023-05-19T20:08:13.958Z,101058.34
2023-05-19T20:11:17.489Z,101042.13
2023-05-19T20:14:20.007Z,101082.75
2023-05-19T20:17:22.471Z,101065.78
2023-05-19T20:20:25.022Z,101067.69
2023-05-19T20:23:27.551Z,101062.09
2023-05-19T20:26:30.052Z,101082.63
2023-05-19T20:29:34.909Z,101055.84
2023-05-19T20:32:37.327Z,101083.84
2023-05-19T20:35:39.893Z,101040.84
2023-05-19T20:38:42.426Z,101064.09
2023-05-19T20:41:44.902Z,101074.38
2023-05-19T20:44:47.313Z,101041.25
2023-05-19T20:47:49.849Z,101056.25
2023-05-19T20:50:53.747Z,101031.75
2023-05-19T20:53:56.210Z,101038.09
2023-05-19T20:56:58.671Z,101028.25
2023-05-19T21:00:01.158Z,101044.03
2023-05-19T21:03:03.723Z,101018.00
2023-05-19T21:06:06.565Z,101057.78
2023-05-19T21:09:09.675Z,101035.22
2023-05-19T21:12:15.089Z,101050.19
2023-05-19T21:15:17.602Z,101060.03
2023-05-19T21:18:20.101Z,101051.28
2023-05-19T21:21:22.555Z,101035.97
2023-05-19T21:24:24.954Z,101068.66
2023-05-19T21:27:27.451Z,101040.31
2023-05-19T21:30:29.970Z,101031.28
2023-05-19T21:33:32.484Z,101007.94
2023-05-19T21:36:35.327Z,101069.50
2023-05-19T21:39:37.770Z,101056.03
2023-05-19T21:42:40.290Z,101040.19
2023-05-19T21:45:42.756Z,101048.84
2023-05-19T21:48:45.260Z,101057.13
2023-05-19T21:51:47.752Z,101038.16
2023-05-19T21:54:52.025Z,101076.41
2023-05-19T21:57:54.466Z,101048.78
2023-05-19T22:00:56.919Z,101041.75
2023-05-19T22:03:59.414Z,101065.78
2023-05-19T22:07:01.943Z,101031.78
2023-05-19T22:10:04.820Z,101044.84
2023-05-19T22:13:07.472Z,101014.06
2023-05-19T22:16:10.134Z,101060.28
2023-05-19T22:19:12.968Z,101071.34
2023-05-19T22:22:16.011Z,101048.00
2023-05-19T22:25:18.682Z,101037.41
2023-05-19T22:28:21.169Z,101025.09
2023-05-19T22:31:23.589Z,101051.66
2023-05-19T22:34:26.251Z,101025.63
2023-05-19T22:37:29.154Z,100988.94
2023-05-19T22:40:32.645Z,101029.25
2023-05-19T22:43:35.323Z,100990.22
2023-05-19T22:46:37.902Z,101039.91
2023-05-19T22:49:41.557Z,100992.56
2023-05-19T22:52:44.062Z,100996.88
2023-05-19T22:55:46.579Z,101002.84
2023-05-19T22:58:49.042Z,100979.16
2023-05-19T23:01:51.446Z,101013.09
2023-05-19T23:04:53.877Z,101007.16
2023-05-19T23:07:56.312Z,100987.09
2023-05-19T23:11:02.360Z,100975.34
2023-05-19T23:14:04.985Z,100978.50
2023-05-19T23:17:07.495Z,100990.63
2023-05-19T23:20:10.737Z,100989.84
2023-05-19T23:23:13.347Z,100985.56
2023-05-19T23:26:15.919Z,100995.00
2023-05-19T23:29:18.539Z,101010.03
2023-05-19T23:32:21.026Z,100955.16
2023-05-19T23:35:23.550Z,100986.44
2023-05-19T23:38:27.080Z,100977.69
2023-05-19T23:41:29.632Z,101005.28
2023-05-19T23:44:32.110Z,101003.56
2023-05-19T23:47:34.600Z,101013.41
2023-05-19T23:50:37.116Z,100981.91
2023-05-19T23:53:39.703Z,100990.22
2023-05-19T23:56:42.084Z,100969.75
2023-05-19T23:59:44.796Z,100977.53
